This is the latest recevied weather packets stored in our database for station/object HA6IFZ-10. If no packets are shown the sender has not sent any weather packets the latest 10 day(s).
| Time | Temp. | Humidity | Pressure | Rain* | Wind** | Luminosity | Snow |
|---|---|---|---|---|---|---|---|
| 1777681060 | 10° C | 58% | 1032.6 hPa | - | - | - | - |
| 1777680007 | 9.44° C | 59% | 1032.4 hPa | - | - | - | - |
| 1777677128 | 10° C | 54% | 1032.9 hPa | - | - | - | - |
| 1777675673 | 10° C | 55% | 1032.9 hPa | - | - | - | - |
| 1777674773 | 9.44° C | 56% | 1032.9 hPa | - | - | - | - |
| 1777673873 | 8.89° C | 57% | 1033 hPa | - | - | - | - |
| 1777672973 | 8.33° C | 59% | 1033 hPa | - | - | - | - |
| 1777672073 | 8.33° C | 61% | 1033.1 hPa | - | - | - | - |
| 1777671173 | 8.33° C | 60% | 1033 hPa | - | - | - | - |
| 1777670272 | 8.89° C | 58% | 1033 hPa | - | - | - | - |
| 1777669372 | 8.89° C | 58% | 1032.9 hPa | - | - | - | - |
| 1777668472 | 8.89° C | 57% | 1032.9 hPa | - | - | - | - |
| 1777667572 | 9.44° C | 56% | 1032.9 hPa | - | - | - | - |
| 1777666672 | 8.89° C | 58% | 1032.8 hPa | - | - | - | - |
| 1777665771 | 10° C | 55% | 1032.7 hPa | - | - | - | - |
| 1777664871 | 10.56° C | 52% | 1032.7 hPa | - | - | - | - |
| 1777663083 | 10.56° C | 52% | 1032.7 hPa | - | - | - | - |
| 1777662183 | 11.11° C | 51% | 1032.7 hPa | - | - | - | - |
| 1777661283 | 11.67° C | 51% | 1032.5 hPa | - | - | - | - |
| 1777660384 | 12.22° C | 49% | 1032.4 hPa | - | - | - | - |
| 1777659483 | 13.33° C | 46% | 1032.3 hPa | - | - | - | - |
| 1777658583 | 14.44° C | 40% | 1032.1 hPa | - | - | - | - |
| 1777657683 | 15° C | 39% | 1032 hPa | - | - | - | - |
| 1777656783 | 15.56° C | 35% | 1031.9 hPa | - | - | - | - |
| 1777655883 | 16.11° C | 35% | 1031.7 hPa | - | - | - | - |
* Rain since midnight (hover to see other rain measurements)
** Current wind speed in m/s (hover to see current wind gust speed)